createdAt,value
2023-03-11T00:04:06.332Z,1.44
2023-03-11T00:08:06.294Z,1.45
2023-03-11T00:11:06.278Z,1.37
2023-03-11T00:25:06.128Z,1.37
2023-03-11T01:18:05.585Z,1.07
2023-03-11T01:22:05.549Z,1.05
2023-03-11T01:33:05.441Z,1.34
2023-03-11T01:35:05.662Z,1.17
2023-03-11T01:36:05.464Z,1.10
2023-03-11T01:37:05.410Z,1.11
2023-03-11T01:38:05.380Z,1.01
2023-03-11T06:17:33.561Z,-1.00
2023-03-11T06:30:33.237Z,0.38
2023-03-11T06:31:33.259Z,0.72
2023-03-11T06:32:33.257Z,1.11
2023-03-11T06:33:33.189Z,1.33
2023-03-11T06:34:33.178Z,1.44
2023-03-11T06:35:33.232Z,1.51
2023-03-11T06:36:33.355Z,1.50
2023-03-11T06:37:33.164Z,1.79
2023-03-11T06:38:33.370Z,2.16
2023-03-11T06:39:33.140Z,2.59
2023-03-11T06:40:33.320Z,2.97
2023-03-11T06:41:33.119Z,3.17
2023-03-11T06:42:33.096Z,3.24
2023-03-11T06:43:33.076Z,3.49
2023-03-11T06:44:33.091Z,3.90
2023-03-11T06:45:33.157Z,4.34
2023-03-11T06:46:33.068Z,4.70
2023-03-11T06:47:33.040Z,4.90
2023-03-11T06:48:33.040Z,4.78
2023-03-11T06:49:33.016Z,4.60
2023-03-11T06:50:33.032Z,4.22
2023-03-11T06:51:32.996Z,3.75
2023-03-11T06:52:32.993Z,3.42
2023-03-11T06:53:33.175Z,3.14
2023-03-11T06:54:33.204Z,2.89
2023-03-11T06:55:32.960Z,2.66
2023-03-11T06:56:32.959Z,2.53
2023-03-11T06:57:32.939Z,2.34
2023-03-11T06:58:32.942Z,2.20
2023-03-11T06:59:32.911Z,2.09
2023-03-11T07:00:32.914Z,1.98
2023-03-11T07:01:38.900Z,1.88
2023-03-11T07:02:32.896Z,1.83
2023-03-11T07:03:32.880Z,1.83
2023-03-11T07:04:32.869Z,1.97
2023-03-11T07:05:32.866Z,2.16
2023-03-11T07:06:32.850Z,2.59
2023-03-11T07:07:32.837Z,3.31
2023-03-11T07:08:38.840Z,4.14
2023-03-11T07:09:32.829Z,4.93
2023-03-11T07:10:32.850Z,5.47
2023-03-11T07:11:32.793Z,5.86
2023-03-11T07:12:32.806Z,6.40
2023-03-11T07:13:32.769Z,6.63
2023-03-11T07:14:32.773Z,7.30
2023-03-11T07:15:32.749Z,7.76
2023-03-11T07:16:32.787Z,7.96
2023-03-11T07:17:32.755Z,8.03
2023-03-11T07:18:32.728Z,7.99
2023-03-11T07:19:32.710Z,7.96
2023-03-11T07:20:32.711Z,8.04
2023-03-11T07:21:32.691Z,8.37
2023-03-11T07:22:32.696Z,8.81
2023-03-11T07:23:32.666Z,9.28
2023-03-11T07:24:38.679Z,9.77
2023-03-11T07:25:32.663Z,9.97
2023-03-11T07:26:32.678Z,9.52
2023-03-11T07:27:32.626Z,9.77
2023-03-11T07:28:32.630Z,9.96
2023-03-11T07:29:32.604Z,10.02
2023-03-11T07:30:32.611Z,10.12
2023-03-11T07:31:32.664Z,9.55
2023-03-11T07:32:32.640Z,9.65
2023-03-11T07:33:34.249Z,9.84
2023-03-11T07:34:32.575Z,9.91
2023-03-11T07:35:32.616Z,9.94
2023-03-11T07:36:32.549Z,10.50
2023-03-11T07:37:32.539Z,10.99
2023-03-11T07:38:32.537Z,10.90
2023-03-11T07:39:32.500Z,11.32
2023-03-11T07:40:32.504Z,11.54
2023-03-11T07:41:32.477Z,11.70
2023-03-11T07:42:32.502Z,11.73
2023-03-11T07:43:32.467Z,11.40
2023-03-11T07:44:32.452Z,11.58
2023-03-11T07:45:32.457Z,11.47
2023-03-11T07:46:32.509Z,10.77
2023-03-11T07:47:32.433Z,10.52
2023-03-11T07:48:32.626Z,10.04
2023-03-11T07:49:32.393Z,9.90
2023-03-11T07:50:38.412Z,10.65
2023-03-11T07:51:32.403Z,11.24
2023-03-11T07:52:32.376Z,11.73
2023-03-11T07:53:32.355Z,12.08
2023-03-11T07:54:32.357Z,11.82
2023-03-11T07:55:32.330Z,12.37
2023-03-11T07:56:32.339Z,11.29
2023-03-11T07:57:32.308Z,11.36
2023-03-11T07:58:32.334Z,11.76
2023-03-11T07:59:32.282Z,12.01
2023-03-11T08:00:32.297Z,12.59
2023-03-11T08:01:38.273Z,13.22
2023-03-11T08:02:32.486Z,12.95
2023-03-11T08:03:32.504Z,12.70
2023-03-11T08:04:32.249Z,13.00
2023-03-11T08:05:32.230Z,12.64
2023-03-11T08:06:38.255Z,12.56
2023-03-11T08:07:32.211Z,12.55
2023-03-11T08:08:38.236Z,12.77
2023-03-11T08:09:32.181Z,12.86
2023-03-11T08:10:32.188Z,12.53
2023-03-11T08:11:32.173Z,12.55
2023-03-11T08:12:32.153Z,13.19
2023-03-11T08:13:32.141Z,13.07
2023-03-11T08:14:32.169Z,12.97
2023-03-11T08:15:32.134Z,13.38
2023-03-11T08:16:32.144Z,14.09
2023-03-11T08:17:32.093Z,13.99
2023-03-11T08:18:32.119Z,13.68
2023-03-11T08:19:32.078Z,13.38
2023-03-11T08:20:32.283Z,13.14
2023-03-11T08:21:32.593Z,13.23
2023-03-11T08:22:32.067Z,13.26
2023-03-11T08:23:38.037Z,13.66
2023-03-11T08:24:38.047Z,13.59
2023-03-11T08:25:32.014Z,13.44
2023-03-11T08:26:32.019Z,13.23
2023-03-11T08:27:31.994Z,13.22
2023-03-11T08:28:31.994Z,13.19
2023-03-11T08:29:38.004Z,13.38
2023-03-11T08:30:31.982Z,13.41
2023-03-11T08:31:32.055Z,13.96
2023-03-11T08:32:38.076Z,14.47
2023-03-11T08:33:31.962Z,14.51
2023-03-11T08:34:31.935Z,14.45
2023-03-11T08:35:31.902Z,15.24
2023-03-11T08:36:31.933Z,15.90
2023-03-11T08:37:32.091Z,16.38
2023-03-11T08:38:32.134Z,16.84
2023-03-11T08:39:31.926Z,17.22
2023-03-11T08:40:31.883Z,17.34
2023-03-11T08:41:31.844Z,17.37
2023-03-11T08:42:32.035Z,17.56
2023-03-11T08:43:31.833Z,17.38
2023-03-11T08:44:31.813Z,17.31
2023-03-11T08:45:31.843Z,17.55
2023-03-11T08:46:31.880Z,17.65
2023-03-11T08:48:14.624Z,17.81
2023-03-11T08:49:14.590Z,18.11
2023-03-11T08:50:14.595Z,18.22
2023-03-11T08:51:14.565Z,18.13
2023-03-11T08:52:14.564Z,17.92
2023-03-11T08:53:14.759Z,17.71
2023-03-11T08:54:20.744Z,17.91
2023-03-11T08:55:14.524Z,17.73
2023-03-11T08:56:14.515Z,15.89
2023-03-11T08:57:14.518Z,15.05
2023-03-11T08:58:14.504Z,13.77
2023-03-11T08:59:14.477Z,13.62
2023-03-11T09:00:14.476Z,13.14
2023-03-11T09:01:14.478Z,13.90
2023-03-11T09:02:14.453Z,15.12
2023-03-11T09:03:14.441Z,16.12
2023-03-11T09:04:14.453Z,16.97
2023-03-11T09:05:14.419Z,17.70
2023-03-11T09:06:14.529Z,18.41
2023-03-11T09:07:14.401Z,18.47
2023-03-11T09:08:14.582Z,19.03
2023-03-11T09:09:14.390Z,18.58
2023-03-11T09:10:14.367Z,17.88
2023-03-11T09:11:14.347Z,17.19
2023-03-11T09:12:14.346Z,17.63
2023-03-11T09:13:14.333Z,17.88
2023-03-11T09:14:14.325Z,17.73
2023-03-11T09:15:14.340Z,18.06
2023-03-11T09:16:14.378Z,18.50
2023-03-11T09:17:14.316Z,18.63
2023-03-11T09:18:14.296Z,16.51
2023-03-11T09:19:14.262Z,16.17
2023-03-11T09:20:14.316Z,17.01
2023-03-11T09:21:14.261Z,17.59
2023-03-11T09:22:14.251Z,18.32
2023-03-11T09:23:20.250Z,18.81
2023-03-11T09:24:14.216Z,18.85
2023-03-11T09:25:14.200Z,17.89
2023-03-11T09:26:14.203Z,17.52
2023-03-11T09:27:14.379Z,17.08
2023-03-11T09:28:14.377Z,16.81
2023-03-11T09:29:49.080Z,16.74
2023-03-11T09:30:48.844Z,17.33
2023-03-11T09:31:48.947Z,18.44
2023-03-11T09:32:48.916Z,19.03
2023-03-11T09:33:48.806Z,18.70
2023-03-11T09:34:48.816Z,18.69
2023-03-11T09:35:48.821Z,19.65
2023-03-11T09:37:27.505Z,19.55
2023-03-11T09:38:27.488Z,20.08
2023-03-11T09:39:27.451Z,20.26
2023-03-11T09:40:27.459Z,19.92
2023-03-11T09:41:27.431Z,20.28
2023-03-11T09:42:27.426Z,18.90
2023-03-11T09:43:27.405Z,19.45
2023-03-11T09:44:27.610Z,19.87
2023-03-11T09:45:27.395Z,18.26
2023-03-11T09:46:27.453Z,16.48
2023-03-11T09:47:27.374Z,15.08
2023-03-11T09:48:27.395Z,14.01
2023-03-11T09:49:27.361Z,13.32
2023-03-11T09:50:33.366Z,12.64
2023-03-11T09:51:27.320Z,12.51
2023-03-11T09:52:27.354Z,12.09
2023-03-11T09:53:33.510Z,11.60
2023-03-11T09:54:27.298Z,11.18
2023-03-11T09:55:33.496Z,10.45
2023-03-11T09:56:27.479Z,9.97
2023-03-11T09:57:27.273Z,9.59
2023-03-11T09:58:27.247Z,9.38
2023-03-11T09:59:27.241Z,9.23
2023-03-11T10:00:27.231Z,8.37
2023-03-11T10:01:27.210Z,8.06
2023-03-11T10:02:27.323Z,7.99
2023-03-11T10:03:27.388Z,8.04
2023-03-11T10:04:33.219Z,8.00
2023-03-11T10:05:27.412Z,8.43
2023-03-11T10:06:33.176Z,8.65
2023-03-11T10:07:27.141Z,8.71
2023-03-11T10:08:27.145Z,8.83
2023-03-11T10:09:27.127Z,8.92
2023-03-11T10:10:27.121Z,9.09
2023-03-11T10:11:27.105Z,8.99
2023-03-11T10:12:27.104Z,8.52
2023-03-11T10:14:11.856Z,11.78
2023-03-11T10:15:11.840Z,14.03
2023-03-11T10:16:05.892Z,15.64
2023-03-11T10:17:05.816Z,17.19
2023-03-11T10:18:05.791Z,18.24
2023-03-11T10:19:05.798Z,19.45
2023-03-11T10:20:05.816Z,20.93
2023-03-11T10:21:05.774Z,21.11
2023-03-11T10:22:05.767Z,21.91
2023-03-11T10:23:05.747Z,22.08
2023-03-11T10:24:05.738Z,21.42
2023-03-11T10:25:05.726Z,19.76
2023-03-11T10:26:05.913Z,17.88
2023-03-11T10:27:05.714Z,16.15
2023-03-11T10:28:05.893Z,17.28
2023-03-11T10:29:11.912Z,18.17
2023-03-11T10:30:05.875Z,18.62
2023-03-11T10:31:05.670Z,18.32
2023-03-11T10:32:05.652Z,17.92
2023-03-11T10:33:05.646Z,17.80
2023-03-11T10:34:05.642Z,17.18
2023-03-11T10:35:11.660Z,18.62
2023-03-11T10:36:11.782Z,18.57
2023-03-11T10:37:05.619Z,17.91
2023-03-11T10:38:11.594Z,17.69
2023-03-11T10:39:05.590Z,16.80
2023-03-11T10:40:05.566Z,16.48
2023-03-11T10:41:11.570Z,16.81
2023-03-11T10:42:05.558Z,17.69
2023-03-11T10:43:05.567Z,19.13
2023-03-11T10:44:05.526Z,20.26
2023-03-11T10:45:05.528Z,21.54
2023-03-11T10:46:05.735Z,21.67
2023-03-11T10:47:05.501Z,22.41
2023-03-11T10:48:05.479Z,21.69
2023-03-11T10:49:05.490Z,18.29
2023-03-11T10:50:05.666Z,16.88
2023-03-11T10:51:05.481Z,15.49
2023-03-11T10:52:05.444Z,14.07
2023-03-11T10:53:05.441Z,13.22
2023-03-11T10:54:05.439Z,12.28
2023-03-11T10:55:05.628Z,11.43
2023-03-11T10:56:05.401Z,10.90
2023-03-11T10:57:05.406Z,10.44
2023-03-11T10:58:05.384Z,10.22
2023-03-11T10:59:05.381Z,10.05
2023-03-11T11:00:05.368Z,9.77
2023-03-11T11:01:05.599Z,9.65
2023-03-11T11:02:05.350Z,9.53
2023-03-11T11:03:05.341Z,9.59
2023-03-11T11:04:05.385Z,9.45
2023-03-11T11:05:05.562Z,9.47
2023-03-11T11:06:05.304Z,8.92
2023-03-11T11:07:05.323Z,8.77
2023-03-11T11:08:05.276Z,8.66
2023-03-11T11:09:05.286Z,8.29
2023-03-11T11:10:05.259Z,8.45
2023-03-11T11:11:05.257Z,10.26
2023-03-11T11:12:05.467Z,13.51
2023-03-11T11:13:05.234Z,15.51
2023-03-11T11:14:05.429Z,17.16
2023-03-11T11:15:05.212Z,17.78
2023-03-11T11:16:05.199Z,17.88
2023-03-11T11:17:05.192Z,17.92
2023-03-11T11:18:05.172Z,18.26
2023-03-11T11:19:05.400Z,18.04
2023-03-11T11:20:05.357Z,17.78
2023-03-11T11:21:05.158Z,19.20
2023-03-11T11:22:05.138Z,20.03
2023-03-11T11:23:05.154Z,19.62
2023-03-11T11:24:05.122Z,20.73
2023-03-11T11:25:05.162Z,21.42
2023-03-11T11:26:05.098Z,22.14
2023-03-11T11:27:05.314Z,22.34
2023-03-11T11:28:05.080Z,22.04
2023-03-11T11:29:06.265Z,20.10
2023-03-11T11:30:11.059Z,18.36
2023-03-11T11:31:05.351Z,18.25
2023-03-11T11:32:05.234Z,18.69
2023-03-11T11:33:11.238Z,19.38
2023-03-11T11:34:05.013Z,19.58
2023-03-11T11:35:05.028Z,19.87
2023-03-11T11:36:04.990Z,18.90
2023-03-11T11:37:04.997Z,18.32
2023-03-11T11:38:04.969Z,19.57
2023-03-11T11:39:05.052Z,18.10
2023-03-11T11:40:04.952Z,15.69
2023-03-11T11:41:04.956Z,14.20
2023-03-11T11:42:04.937Z,12.58
2023-03-11T11:43:04.933Z,11.93
2023-03-11T11:44:04.908Z,11.27
2023-03-11T11:45:04.906Z,10.96
2023-03-11T11:46:04.930Z,10.75
2023-03-11T11:47:06.316Z,10.45
2023-03-11T11:48:04.881Z,10.02
2023-03-11T11:49:04.872Z,9.22
2023-03-11T11:50:04.846Z,8.52
2023-03-11T11:51:11.052Z,8.35
2023-03-11T11:52:04.834Z,8.37
2023-03-11T11:53:04.825Z,8.06
2023-03-11T11:54:04.802Z,8.40
2023-03-11T11:55:04.822Z,10.01
2023-03-11T11:56:04.789Z,12.15
2023-03-11T11:57:04.790Z,13.37
2023-03-11T11:58:04.782Z,12.52
2023-03-11T11:59:04.800Z,12.52
2023-03-11T12:00:05.192Z,12.71
2023-03-11T12:01:11.071Z,12.22
2023-03-11T12:02:04.772Z,12.74
2023-03-11T12:03:04.757Z,12.96
2023-03-11T12:04:04.765Z,14.36
2023-03-11T12:05:04.948Z,14.45
2023-03-11T12:06:04.714Z,13.78
2023-03-11T12:07:04.734Z,14.37
2023-03-11T12:08:04.684Z,14.72
2023-03-11T12:09:04.721Z,16.20
2023-03-11T12:10:21.444Z,15.72
2023-03-11T12:11:05.977Z,15.74
2023-03-11T12:12:04.684Z,17.18
2023-03-11T12:13:04.674Z,16.19
2023-03-11T12:14:04.658Z,15.92
2023-03-11T12:15:10.704Z,16.09
2023-03-11T12:16:04.835Z,16.72
2023-03-11T12:17:04.643Z,16.34
2023-03-11T12:18:04.627Z,16.48
2023-03-11T12:19:04.626Z,16.69
2023-03-11T12:20:04.596Z,16.14
2023-03-11T12:21:04.562Z,16.82
2023-03-11T12:22:04.590Z,18.16
2023-03-11T12:23:04.552Z,19.36
2023-03-11T12:24:04.551Z,18.84
2023-03-11T12:25:04.535Z,19.38
2023-03-11T12:26:04.749Z,20.18
2023-03-11T12:27:04.522Z,20.46
2023-03-11T12:28:04.711Z,20.72
2023-03-11T12:29:04.496Z,20.93
2023-03-11T12:30:04.503Z,20.91
2023-03-11T12:31:04.713Z,20.26
2023-03-11T12:32:06.758Z,19.24
2023-03-11T12:33:04.508Z,18.60
2023-03-11T12:34:10.478Z,18.82
2023-03-11T12:35:04.492Z,19.21
2023-03-11T12:36:04.517Z,17.36
2023-03-11T12:37:04.648Z,15.94
2023-03-11T12:38:10.467Z,16.81
2023-03-11T12:39:10.473Z,17.85
2023-03-11T12:40:04.375Z,18.62
2023-03-11T12:41:04.397Z,18.33
2023-03-11T12:42:04.470Z,18.75
2023-03-11T12:43:04.391Z,20.11
2023-03-11T12:44:04.561Z,19.99
2023-03-11T12:45:04.344Z,17.94
2023-03-11T12:46:04.358Z,16.44
2023-03-11T12:47:10.419Z,14.52
2023-03-11T12:48:04.514Z,13.70
2023-03-11T12:49:04.317Z,12.79
2023-03-11T12:50:04.301Z,11.61
2023-03-11T12:51:04.311Z,11.64
2023-03-11T12:52:04.336Z,12.95
2023-03-11T12:53:04.320Z,14.47
2023-03-11T12:54:10.300Z,15.59
2023-03-11T12:55:04.255Z,16.88
2023-03-11T12:56:04.240Z,17.65
2023-03-11T12:57:04.283Z,18.04
2023-03-11T12:58:04.628Z,19.00
2023-03-11T12:59:04.484Z,20.01
2023-03-11T13:00:10.231Z,20.56
2023-03-11T13:01:04.453Z,20.65
2023-03-11T13:02:04.285Z,20.10
2023-03-11T13:03:04.223Z,20.10
2023-03-11T13:04:04.174Z,20.06
2023-03-11T13:05:10.276Z,19.81
2023-03-11T13:06:04.132Z,19.42
2023-03-11T13:07:04.143Z,18.54
2023-03-11T13:08:04.127Z,16.49
2023-03-11T13:09:04.311Z,15.30
2023-03-11T13:10:45.406Z,14.47
2023-03-11T13:11:39.343Z,15.62
2023-03-11T13:12:39.326Z,16.29
2023-03-11T13:13:39.150Z,16.29
2023-03-11T13:14:39.139Z,16.22
2023-03-11T13:15:39.115Z,15.86
2023-03-11T13:16:39.213Z,15.53
2023-03-11T13:17:39.078Z,15.18
2023-03-11T13:18:39.057Z,14.77
2023-03-11T13:19:39.042Z,14.45
2023-03-11T13:20:39.312Z,14.17
2023-03-11T13:21:39.066Z,14.15
2023-03-11T13:22:39.027Z,13.74
2023-03-11T13:23:39.441Z,14.01
2023-03-11T13:24:38.992Z,14.06
2023-03-11T13:25:39.034Z,14.45
2023-03-11T13:26:39.006Z,15.50
2023-03-11T13:27:39.002Z,15.42
2023-03-11T13:28:38.972Z,14.88
2023-03-11T13:29:39.012Z,14.10
2023-03-11T13:30:38.968Z,13.35
2023-03-11T13:31:38.985Z,12.19
2023-03-11T13:32:38.964Z,11.52
2023-03-11T13:33:38.934Z,10.95
2023-03-11T13:34:38.917Z,10.88
2023-03-11T13:35:38.949Z,11.01
2023-03-11T13:36:44.904Z,10.81
2023-03-11T13:37:39.072Z,10.32
2023-03-11T13:38:45.101Z,10.66
2023-03-11T13:39:38.838Z,11.98
2023-03-11T13:40:38.845Z,12.08
2023-03-11T13:41:38.857Z,12.20
2023-03-11T13:42:38.829Z,12.28
2023-03-11T13:43:38.820Z,12.23
2023-03-11T13:44:38.785Z,12.59
2023-03-11T13:45:39.239Z,13.05
2023-03-11T13:46:38.818Z,12.31
2023-03-11T13:48:25.845Z,12.41
2023-03-11T13:49:27.951Z,12.48
2023-03-11T13:51:09.028Z,11.61
2023-03-11T13:52:15.055Z,11.69
2023-03-11T13:53:09.228Z,11.36
2023-03-11T13:54:09.201Z,11.40
2023-03-11T13:55:08.992Z,11.54
2023-03-11T13:56:08.990Z,11.60
2023-03-11T13:57:09.169Z,11.61
2023-03-11T13:58:09.168Z,11.22
2023-03-11T13:59:08.932Z,11.64
2023-03-11T14:00:09.007Z,11.86
2023-03-11T14:01:09.013Z,11.79
2023-03-11T14:02:08.946Z,11.61
2023-03-11T14:03:08.893Z,11.21
2023-03-11T14:04:08.944Z,11.10
2023-03-11T14:05:08.904Z,10.65
2023-03-11T14:06:09.081Z,10.12
2023-03-11T14:07:08.920Z,9.81
2023-03-11T14:08:08.870Z,9.83
2023-03-11T14:09:08.839Z,9.56
2023-03-11T14:10:08.884Z,9.55
2023-03-11T14:11:15.294Z,9.57
2023-03-11T14:12:08.820Z,9.56
2023-03-11T14:13:08.809Z,9.73
2023-03-11T14:14:08.816Z,9.90
2023-03-11T14:15:08.769Z,10.09
2023-03-11T14:16:14.910Z,10.27
2023-03-11T14:17:08.755Z,10.44
2023-03-11T14:18:08.755Z,10.55
2023-03-11T14:19:08.844Z,10.69
2023-03-11T14:20:08.839Z,10.52
2023-03-11T14:21:08.715Z,10.50
2023-03-11T14:22:08.714Z,10.54
2023-03-11T14:23:10.736Z,10.75
2023-03-11T14:24:08.691Z,10.95
2023-03-11T14:25:08.683Z,11.02
2023-03-11T14:26:08.689Z,11.01
2023-03-11T14:27:08.649Z,11.02
2023-03-11T14:28:14.694Z,11.06
2023-03-11T14:29:08.645Z,11.17
2023-03-11T14:30:08.650Z,11.51
2023-03-11T14:31:08.607Z,11.65
2023-03-11T14:32:08.596Z,11.65
2023-03-11T14:33:08.588Z,11.70
2023-03-11T14:34:08.619Z,11.73
2023-03-11T14:35:08.579Z,11.86
2023-03-11T14:36:08.593Z,11.94
2023-03-11T14:37:08.537Z,11.18
2023-03-11T14:38:08.546Z,10.91
2023-03-11T14:39:14.560Z,10.81
2023-03-11T14:40:08.589Z,10.60
2023-03-11T14:41:47.392Z,10.32
2023-03-11T14:42:47.396Z,10.32
2023-03-11T14:43:47.357Z,10.62
2023-03-11T14:44:47.598Z,11.03
2023-03-11T14:45:47.669Z,11.58
2023-03-11T14:46:47.367Z,12.00
2023-03-11T14:47:47.299Z,12.37
2023-03-11T14:48:53.569Z,12.52
2023-03-11T14:49:47.525Z,12.40
2023-03-11T14:50:47.313Z,12.56
2023-03-11T14:51:47.280Z,12.74
2023-03-11T14:52:47.292Z,13.11
2023-03-11T14:53:47.247Z,12.89
2023-03-11T14:54:47.261Z,12.44
2023-03-11T14:55:47.229Z,11.70
2023-03-11T14:57:30.451Z,10.85
2023-03-11T14:58:30.377Z,10.58
2023-03-11T14:59:30.354Z,10.29
2023-03-11T15:00:36.200Z,10.17
2023-03-11T15:01:30.259Z,10.07
2023-03-11T15:02:30.126Z,10.11
2023-03-11T15:03:30.153Z,10.12
2023-03-11T15:04:30.163Z,10.23
2023-03-11T15:05:30.139Z,10.38
2023-03-11T15:06:30.085Z,10.63
2023-03-11T15:07:30.589Z,10.65
2023-03-11T15:08:36.114Z,10.05
2023-03-11T15:09:30.262Z,9.71
2023-03-11T15:10:36.343Z,9.91
2023-03-11T15:11:30.066Z,10.09
2023-03-11T15:12:30.022Z,10.04
2023-03-11T15:13:30.048Z,9.91
2023-03-11T15:14:30.015Z,10.12
2023-03-11T15:15:30.004Z,10.17
2023-03-11T15:16:30.266Z,10.15
2023-03-11T15:17:37.356Z,10.40
2023-03-11T15:18:31.063Z,10.51
2023-03-11T15:19:30.144Z,10.63
2023-03-11T15:20:29.940Z,10.70
2023-03-11T15:21:30.068Z,10.77
2023-03-11T15:22:30.375Z,10.81
2023-03-11T15:23:30.347Z,10.84
2023-03-11T15:24:29.914Z,10.73
2023-03-11T15:25:29.891Z,10.72
2023-03-11T15:26:29.949Z,10.27
2023-03-11T15:27:29.892Z,10.11
2023-03-11T15:28:35.917Z,10.09
2023-03-11T15:30:16.751Z,9.91
2023-03-11T15:31:16.843Z,9.59
2023-03-11T15:32:16.925Z,9.32
2023-03-11T15:33:16.673Z,9.22
2023-03-11T15:34:16.882Z,9.19
2023-03-11T15:35:16.692Z,9.16
2023-03-11T15:36:16.620Z,8.95
2023-03-11T15:37:16.644Z,8.87
2023-03-11T15:38:16.641Z,8.87
2023-03-11T15:39:22.641Z,9.01
2023-03-11T15:40:16.605Z,9.10
2023-03-11T15:41:16.619Z,9.13
2023-03-11T15:42:16.576Z,9.27
2023-03-11T15:43:16.606Z,9.22
2023-03-11T15:44:16.578Z,9.30
2023-03-11T15:45:16.771Z,9.25
2023-03-11T15:46:16.658Z,9.30
2023-03-11T15:47:16.569Z,9.17
2023-03-11T15:48:22.563Z,9.27
2023-03-11T15:49:16.933Z,9.38
2023-03-11T15:50:24.180Z,9.22
2023-03-11T15:51:17.569Z,9.31
2023-03-11T15:52:22.551Z,9.46
2023-03-11T15:53:16.492Z,9.50
2023-03-11T15:54:16.453Z,9.49
2023-03-11T15:55:16.625Z,9.53
2023-03-11T15:56:22.432Z,9.25
2023-03-11T15:57:16.446Z,8.76
2023-03-11T15:58:22.542Z,8.44
2023-03-11T15:59:16.441Z,8.22
2023-03-11T16:00:16.408Z,8.00
2023-03-11T16:01:16.406Z,7.86
2023-03-11T16:02:16.350Z,7.66
2023-03-11T16:03:16.347Z,7.48
2023-03-11T16:04:16.447Z,7.45
2023-03-11T16:05:22.379Z,7.30
2023-03-11T16:06:16.803Z,7.23
2023-03-11T16:07:36.823Z,7.12
2023-03-11T16:08:17.372Z,7.13
2023-03-11T16:09:16.284Z,7.10
2023-03-11T16:10:16.283Z,7.09
2023-03-11T16:11:16.280Z,7.06
2023-03-11T16:12:22.303Z,6.99
2023-03-11T16:13:22.342Z,6.84
2023-03-11T16:14:16.217Z,6.86
2023-03-11T16:15:16.273Z,6.83
2023-03-11T16:16:16.281Z,6.79
2023-03-11T16:17:16.237Z,6.76
2023-03-11T16:18:16.190Z,6.73
2023-03-11T16:19:16.185Z,6.70
2023-03-11T16:20:16.174Z,6.55
2023-03-11T16:21:16.179Z,6.47
2023-03-11T16:22:16.372Z,6.36
2023-03-11T16:23:16.366Z,6.24
2023-03-11T16:24:16.204Z,6.18
2023-03-11T16:25:16.324Z,6.18
2023-03-11T16:26:17.151Z,6.12
2023-03-11T16:27:16.111Z,6.11
2023-03-11T16:28:16.101Z,6.03
2023-03-11T16:29:19.647Z,6.06
2023-03-11T16:30:16.085Z,5.93
2023-03-11T16:31:16.140Z,5.86
2023-03-11T16:32:16.321Z,5.72
2023-03-11T16:33:16.061Z,5.67
2023-03-11T16:34:16.041Z,5.63
2023-03-11T16:35:16.095Z,5.61
2023-03-11T16:36:16.032Z,5.48
2023-03-11T16:37:22.120Z,5.38
2023-03-11T16:38:16.059Z,5.38
2023-03-11T16:39:16.230Z,5.34
2023-03-11T16:40:16.223Z,5.32
2023-03-11T16:41:15.953Z,5.24
2023-03-11T16:42:16.332Z,5.17
2023-03-11T16:43:22.036Z,5.03
2023-03-11T16:44:16.192Z,4.91
2023-03-11T16:45:15.942Z,4.81
2023-03-11T16:46:15.959Z,4.65
2023-03-11T16:47:15.925Z,4.70
2023-03-11T16:48:15.901Z,4.63
2023-03-11T16:49:15.876Z,4.66
2023-03-11T16:50:15.894Z,4.62
2023-03-11T16:51:15.857Z,4.55
2023-03-11T16:52:15.933Z,4.52
2023-03-11T16:53:15.814Z,4.44
2023-03-11T16:54:16.021Z,4.32
2023-03-11T16:55:15.844Z,4.23
2023-03-11T16:56:15.857Z,4.12
2023-03-11T16:57:16.050Z,3.96
2023-03-11T16:58:15.812Z,3.90
2023-03-11T16:59:15.960Z,3.85
2023-03-11T17:00:15.775Z,3.78
2023-03-11T17:01:15.774Z,3.78
2023-03-11T17:02:15.985Z,3.68
2023-03-11T17:03:15.713Z,3.60
2023-03-11T17:04:15.765Z,3.53
2023-03-11T17:05:15.850Z,3.39
2023-03-11T17:06:15.718Z,3.32
2023-03-11T17:07:15.746Z,3.24
2023-03-11T17:08:15.920Z,3.20
2023-03-11T17:09:15.709Z,3.10
2023-03-11T17:10:15.940Z,3.06
2023-03-11T17:11:15.637Z,3.03
2023-03-11T17:12:15.844Z,3.00
2023-03-11T17:13:18.835Z,2.95
2023-03-11T17:14:16.970Z,2.79
2023-03-11T17:15:15.623Z,2.75
2023-03-11T17:16:15.680Z,2.63
2023-03-11T17:17:15.582Z,2.56
2023-03-11T17:18:15.870Z,2.51
2023-03-11T17:19:15.598Z,2.40
2023-03-11T17:20:15.601Z,2.35
2023-03-11T17:21:15.556Z,2.30
2023-03-11T17:22:15.609Z,2.26
2023-03-11T17:23:15.511Z,2.23
2023-03-11T17:24:15.519Z,2.20
2023-03-11T17:25:15.506Z,2.22
2023-03-11T17:26:17.795Z,2.20
2023-03-11T17:27:21.607Z,2.19
2023-03-11T17:28:15.469Z,2.06
2023-03-11T17:29:15.492Z,2.05
2023-03-11T17:30:24.276Z,2.04
2023-03-11T17:31:16.888Z,2.01
2023-03-11T17:32:17.210Z,1.91
2023-03-11T17:33:15.654Z,1.88
2023-03-11T17:34:15.428Z,1.87
2023-03-11T17:35:15.445Z,1.83
2023-03-11T17:36:15.418Z,1.80
2023-03-11T17:37:15.402Z,1.73
2023-03-11T17:38:16.606Z,1.68
2023-03-11T17:39:15.381Z,1.63
2023-03-11T17:40:15.364Z,1.63
2023-03-11T17:41:15.368Z,1.72
2023-03-11T17:42:15.342Z,1.80
2023-03-11T17:43:15.357Z,1.79
2023-03-11T17:44:15.306Z,1.79
2023-03-11T17:45:15.365Z,1.72
2023-03-11T17:46:21.434Z,1.65
2023-03-11T17:47:15.305Z,1.55
2023-03-11T17:48:15.287Z,1.51
2023-03-11T17:49:15.287Z,1.55
2023-03-11T17:50:15.272Z,1.45
2023-03-11T17:51:15.247Z,1.30
2023-03-11T17:52:15.247Z,1.34
2023-03-11T17:53:15.257Z,1.33
2023-03-11T17:54:15.228Z,1.22
2023-03-11T17:55:15.208Z,1.15
2023-03-11T17:56:15.227Z,1.11
2023-03-11T17:57:15.178Z,1.10
2023-03-11T17:58:15.219Z,1.11
2023-03-11T17:59:17.626Z,1.27
2023-03-11T18:00:15.322Z,1.33
2023-03-11T18:01:15.195Z,1.47
2023-03-11T18:02:15.249Z,1.60
2023-03-11T18:03:15.126Z,1.59
2023-03-11T18:04:15.168Z,1.58
2023-03-11T18:05:16.970Z,1.50
2023-03-11T18:06:15.089Z,1.37
2023-03-11T18:07:15.077Z,1.27
2023-03-11T18:08:15.100Z,1.15
2023-03-11T18:09:15.140Z,1.04
2023-03-11T18:11:18.224Z,1.03
2023-03-11T18:12:15.061Z,1.08
2023-03-11T18:13:15.091Z,1.10
2023-03-11T18:14:15.095Z,1.01
2023-03-11T21:17:13.461Z,-1.00
2023-03-11T21:20:13.225Z,-1.00
2023-03-11T21:22:13.471Z,-1.00
2023-03-11T21:23:13.322Z,-1.00
